Time;durP1;ratioP1;P1;durP2;ratioP2;P2;SDS_P1;SDS_P2;PMS_P1;PMS_P2;Temp;Humidity;BMP_temperature;BMP_pressure;BME280_temperature;BME280_humidity;BME280_pressure;Samples;Min_cycle;Max_cycle;Signal;HPM_P1;HPM_P2
2022/12/07 00:01:14;;;;;;;8.25;0.73;;;2.60;99.90;;;;;;5056962;28;20103;-32
2022/12/07 00:03:41;;;;;;;10.93;1.00;;;2.60;99.90;;;;;;5061208;28;20072;-31
2022/12/07 00:06:09;;;;;;;15.68;1.60;;;2.60;99.90;;;;;;5074298;28;20054;-31
2022/12/07 00:08:37;;;;;;;9.07;1.30;;;2.80;99.90;;;;;;5076862;28;20044;-31
2022/12/07 00:11:03;;;;;;;14.02;1.17;;;2.80;99.90;;;;;;5076488;28;20505;-31
2022/12/07 00:13:30;;;;;;;13.00;1.52;;;2.80;99.90;;;;;;5076693;28;20087;-31
2022/12/07 00:15:59;;;;;;;13.32;1.27;;;2.80;99.90;;;;;;5073512;28;20114;-31
2022/12/07 00:18:25;;;;;;;10.00;1.10;;;3.00;99.90;;;;;;5059218;28;20044;-31
2022/12/07 00:20:50;;;;;;;6.75;0.93;;;3.30;99.90;;;;;;5074377;28;20044;-30
2022/12/07 00:23:16;;;;;;;11.02;1.00;;;3.40;99.90;;;;;;5076593;28;20037;-31
2022/12/07 00:25:42;;;;;;;7.25;0.50;;;3.80;99.90;;;;;;5077657;28;20083;-31
2022/12/07 00:28:09;;;;;;;5.65;0.47;;;4.40;99.90;;;;;;5060320;28;20554;-32
2022/12/07 00:30:35;;;;;;;6.50;0.73;;;4.30;99.90;;;;;;5056476;28;20045;-32
2022/12/07 00:33:01;;;;;;;3.92;0.60;;;4.40;99.90;;;;;;5056718;28;20544;-32
2022/12/07 00:35:26;;;;;;;11.50;1.20;;;3.90;99.90;;;;;;5055121;28;20041;-32
2022/12/07 00:37:52;;;;;;;7.15;0.57;;;4.20;99.90;;;;;;5062108;28;20097;-32
2022/12/07 00:40:19;;;;;;;6.20;0.80;;;4.50;99.90;;;;;;5076312;28;20044;-31
2022/12/07 00:42:45;;;;;;;5.28;0.55;;;3.90;99.90;;;;;;5076266;28;20044;-32
2022/12/07 00:45:10;;;;;;;2.63;0.30;;;4.70;99.90;;;;;;5042581;28;20037;-33
2022/12/07 00:47:36;;;;;;;6.70;1.10;;;4.60;99.90;;;;;;5072468;28;20053;-33
2022/12/07 00:50:02;;;;;;;5.35;0.75;;;4.20;99.90;;;;;;5056010;28;20076;-33
2022/12/07 00:52:27;;;;;;;10.73;1.00;;;4.30;99.90;;;;;;5055978;28;20517;-32
2022/12/07 00:54:53;;;;;;;3.65;0.85;;;5.10;99.90;;;;;;5054677;28;20049;-32
2022/12/07 00:57:19;;;;;;;9.95;0.68;;;4.60;99.90;;;;;;5055853;28;20047;-34
2022/12/07 00:59:45;;;;;;;7.82;0.73;;;4.50;99.90;;;;;;5054479;28;20147;-33
2022/12/07 01:02:10;;;;;;;11.93;1.83;;;4.80;99.90;;;;;;5055397;28;20056;-33
2022/12/07 01:04:36;;;;;;;6.60;0.63;;;4.00;99.90;;;;;;5054515;28;20107;-32
2022/12/07 01:07:02;;;;;;;6.00;1.02;;;4.20;99.90;;;;;;5055517;28;20079;-33
2022/12/07 01:09:27;;;;;;;3.30;0.40;;;4.00;99.90;;;;;;5063345;28;20135;-32
2022/12/07 01:11:53;;;;;;;3.05;0.68;;;3.40;99.90;;;;;;5074652;28;20048;-33
2022/12/07 01:14:19;;;;;;;12.32;0.80;;;3.50;99.90;;;;;;5075998;28;20413;-32
2022/12/07 01:16:44;;;;;;;8.40;0.88;;;3.40;99.90;;;;;;5074139;28;20063;-33
2022/12/07 01:19:10;;;;;;;8.90;0.82;;;3.30;99.90;;;;;;5073335;28;20044;-36
2022/12/07 01:21:37;;;;;;;10.90;1.13;;;3.70;99.90;;;;;;5075619;28;20037;-34
2022/12/07 01:24:10;;;;;;;8.60;0.85;;;3.60;99.90;;;;;;5074145;28;20051;-34
2022/12/07 01:26:35;;;;;;;7.53;1.05;;;3.50;99.90;;;;;;5075646;28;20074;-33
2022/12/07 01:29:01;;;;;;;11.93;1.77;;;3.50;99.90;;;;;;5073440;28;20555;-33
2022/12/07 01:31:28;;;;;;;9.88;1.00;;;4.20;99.90;;;;;;5086209;28;20053;-34
2022/12/07 01:33:57;;;;;;;12.27;1.02;;;4.30;99.90;;;;;;5055353;28;20123;-33
2022/12/07 01:36:25;;;;;;;11.35;1.00;;;3.90;99.90;;;;;;5087342;28;20044;-33
2022/12/07 01:38:56;;;;;;;12.35;1.10;;;4.00;99.90;;;;;;5054395;28;20128;-33
2022/12/07 01:41:24;;;;;;;10.05;1.27;;;3.60;99.90;;;;;;5053709;28;20044;-34
2022/12/07 01:44:08;;;;;;;9.18;1.00;;;3.50;99.90;;;;;;5054908;28;20124;-34
2022/12/07 01:46:34;;;;;;;16.45;1.17;;;3.40;99.90;;;;;;5054836;28;20045;-33
2022/12/07 01:49:01;;;;;;;10.45;0.80;;;4.10;99.90;;;;;;5054388;28;20037;-33
2022/12/07 01:51:28;;;;;;;13.85;1.25;;;3.20;99.90;;;;;;5053544;28;20044;-32
2022/12/07 01:53:54;;;;;;;7.05;1.85;;;3.00;99.90;;;;;;5054923;28;20048;-32
2022/12/07 01:56:26;;;;;;;8.02;0.90;;;3.60;99.90;;;;;;5054280;28;20129;-32
2022/12/07 01:58:53;;;;;;;12.13;1.38;;;3.60;99.90;;;;;;5072308;28;20044;-33
2022/12/07 02:01:18;;;;;;;10.23;1.20;;;3.10;99.90;;;;;;5074560;28;20048;-32
2022/12/07 02:03:45;;;;;;;12.63;1.33;;;3.10;99.90;;;;;;5056966;28;20048;-32
2022/12/07 02:06:15;;;;;;;17.45;2.00;;;3.40;99.90;;;;;;5075116;28;20052;-33
2022/12/07 02:08:42;;;;;;;8.88;0.80;;;3.50;99.90;;;;;;5060656;28;20056;-32
2022/12/07 02:11:08;;;;;;;12.75;2.30;;;3.40;99.90;;;;;;5053703;28;20171;-31
2022/12/07 02:13:37;;;;;;;8.38;1.05;;;3.60;99.90;;;;;;5054315;28;20055;-32
2022/12/07 02:16:06;;;;;;;10.93;1.85;;;4.10;99.90;;;;;;5053884;28;20057;-32
2022/12/07 02:18:53;;;;;;;10.73;1.13;;;4.00;99.90;;;;;;5053000;28;20048;-32
2022/12/07 02:21:25;;;;;;;17.17;1.52;;;4.20;99.90;;;;;;5053120;28;20508;-31
2022/12/07 02:24:04;;;;;;;12.57;1.80;;;4.50;99.90;;;;;;5054771;28;20387;-34
2022/12/07 02:27:06;;;;;;;5.30;0.50;;;4.70;99.90;;;;;;5053007;28;20508;-34
2022/12/07 02:29:45;;;;;;;10.00;1.42;;;4.30;99.90;;;;;;5057489;28;20124;-34
2022/12/07 02:32:30;;;;;;;13.55;1.98;;;4.90;99.90;;;;;;5063502;28;20122;-33
2022/12/07 02:35:09;;;;;;;4.00;0.80;;;4.30;99.90;;;;;;5054221;28;20471;-33
2022/12/07 02:37:48;;;;;;;4.10;0.73;;;4.30;99.90;;;;;;5054327;28;20067;-39
2022/12/07 02:40:43;;;;;;;7.35;1.50;;;4.50;99.90;;;;;;5052960;28;20091;-39
2022/12/07 02:43:29;;;;;;;10.80;0.75;;;4.10;99.90;;;;;;5054537;28;20379;-34
2022/12/07 02:46:01;;;;;;;6.97;0.57;;;3.90;99.90;;;;;;5053834;28;20135;-33
2022/12/07 02:48:28;;;;;;;4.85;0.70;;;4.40;99.90;;;;;;5053849;28;20052;-33
2022/12/07 02:50:54;;;;;;;3.72;0.28;;;4.10;99.90;;;;;;5052583;28;20114;-35
2022/12/07 02:53:33;;;;;;;2.78;0.40;;;3.50;99.90;;;;;;5054299;28;20061;-36
2022/12/07 02:56:09;;;;;;;8.95;0.73;;;4.00;99.90;;;;;;5053725;28;20179;-37
2022/12/07 02:58:50;;;;;;;4.80;0.47;;;3.90;99.90;;;;;;5052552;28;20048;-38
2022/12/07 03:01:35;;;;;;;7.90;1.75;;;3.80;99.90;;;;;;5052910;28;20045;-35
2022/12/07 03:04:26;;;;;;;8.48;0.85;;;3.80;99.90;;;;;;5069318;28;20091;-35
2022/12/07 03:07:00;;;;;;;7.95;1.00;;;3.70;99.90;;;;;;5052247;28;20049;-34
2022/12/07 03:09:42;;;;;;;9.65;0.50;;;3.70;99.90;;;;;;5086217;28;20057;-33
2022/12/07 03:12:20;;;;;;;5.30;0.80;;;3.70;99.90;;;;;;5052370;28;20083;-34
2022/12/07 03:14:58;;;;;;;5.78;1.67;;;3.40;99.90;;;;;;5053937;28;20076;-34
2022/12/07 03:17:28;;;;;;;4.50;0.30;;;3.20;99.90;;;;;;5053369;28;20065;-34
2022/12/07 03:19:57;;;;;;;10.52;1.73;;;3.50;99.90;;;;;;5052348;28;20088;-33
2022/12/07 03:22:26;;;;;;;6.40;0.40;;;2.90;99.90;;;;;;5052111;28;20503;-34
2022/12/07 03:24:58;;;;;;;6.95;0.70;;;2.90;99.90;;;;;;5053314;28;20048;-35
2022/12/07 03:27:24;;;;;;;7.28;0.50;;;2.70;99.90;;;;;;5053687;28;20045;-33
2022/12/07 03:29:55;;;;;;;8.63;0.60;;;2.50;99.90;;;;;;5057823;28;20055;-33
2022/12/07 03:32:26;;;;;;;9.23;0.45;;;2.60;99.90;;;;;;5082381;28;20083;-34
2022/12/07 03:35:00;;;;;;;4.68;0.55;;;2.20;99.90;;;;;;5037395;28;20143;-34
2022/12/07 03:37:32;;;;;;;15.32;1.80;;;2.30;99.90;;;;;;5037978;28;20049;-33
2022/12/07 03:40:22;;;;;;;5.75;0.50;;;2.10;99.90;;;;;;5037877;28;20053;-33
2022/12/07 03:42:49;;;;;;;7.75;1.13;;;1.90;99.90;;;;;;5043192;28;20106;-33
2022/12/07 03:45:16;;;;;;;11.68;1.02;;;1.70;99.90;;;;;;5089751;28;20059;-33
2022/12/07 03:47:52;;;;;;;4.28;0.52;;;1.90;99.90;;;;;;5057117;28;20056;-33
2022/12/07 03:50:30;;;;;;;7.97;0.70;;;1.80;99.90;;;;;;5056225;28;20075;-34
2022/12/07 03:53:03;;;;;;;12.13;1.48;;;1.40;99.90;;;;;;5055748;28;20060;-34
2022/12/07 03:55:35;;;;;;;9.63;0.63;;;3.20;99.90;;;;;;5057546;28;20045;-33
2022/12/07 03:58:07;;;;;;;14.07;0.80;;;1.70;99.90;;;;;;5056939;28;20053;-34
2022/12/07 04:00:33;;;;;;;14.02;0.98;;;1.70;99.90;;;;;;5057280;28;20123;-33
2022/12/07 04:02:58;;;;;;;12.63;1.27;;;1.90;99.90;;;;;;5056594;28;20512;-34
2022/12/07 04:05:24;;;;;;;8.48;1.13;;;2.90;99.90;;;;;;5065662;28;20087;-34
2022/12/07 04:07:50;;;;;;;8.68;1.05;;;2.00;99.90;;;;;;5089310;28;20048;-34
2022/12/07 04:10:17;;;;;;;5.05;0.50;;;1.50;99.90;;;;;;5055518;28;20044;-34
2022/12/07 04:12:42;;;;;;;7.25;1.52;;;1.80;99.90;;;;;;5056683;28;20037;-34
2022/12/07 04:15:09;;;;;;;7.72;1.10;;;2.00;99.90;;;;;;5055434;28;20095;-33
2022/12/07 04:17:35;;;;;;;12.93;0.88;;;2.30;99.90;;;;;;5055604;28;20429;-34
2022/12/07 04:20:00;;;;;;;14.23;1.17;;;3.00;99.90;;;;;;5056459;28;20055;-34
2022/12/07 04:22:26;;;;;;;7.93;1.00;;;2.90;99.90;;;;;;5056329;28;20041;-33
2022/12/07 04:24:52;;;;;;;11.00;1.33;;;3.20;99.90;;;;;;5050735;28;20094;-34
2022/12/07 04:27:18;;;;;;;9.68;0.90;;;3.40;99.90;;;;;;5035322;28;20049;-34
2022/12/07 04:29:43;;;;;;;9.85;0.77;;;3.60;99.90;;;;;;5035612;28;20046;-33
2022/12/07 04:32:09;;;;;;;10.85;1.10;;;4.40;99.90;;;;;;5036421;28;20053;-32
2022/12/07 04:34:35;;;;;;;18.40;2.15;;;3.80;99.90;;;;;;5068565;28;20144;-34
2022/12/07 04:37:01;;;;;;;13.30;1.08;;;3.90;99.90;;;;;;5064400;28;20051;-33
2022/12/07 04:39:30;;;;;;;15.77;1.70;;;4.20;99.90;;;;;;5075474;28;20055;-35
2022/12/07 04:41:56;;;;;;;9.00;0.88;;;4.40;99.90;;;;;;5076410;28;20119;-34
2022/12/07 04:44:23;;;;;;;11.20;1.50;;;4.50;99.90;;;;;;5076162;28;20113;-33
2022/12/07 04:46:49;;;;;;;8.50;0.90;;;4.00;99.90;;;;;;5061637;28;20080;-34
2022/12/07 04:49:16;;;;;;;8.20;0.77;;;4.10;99.90;;;;;;5056001;28;20432;-34
2022/12/07 04:51:42;;;;;;;9.60;0.73;;;4.40;99.90;;;;;;5054787;28;20045;-34
2022/12/07 04:54:08;;;;;;;12.93;0.82;;;3.60;99.90;;;;;;5055020;28;20084;-34
2022/12/07 04:56:35;;;;;;;14.63;1.75;;;3.70;99.90;;;;;;5054632;28;20072;-34
2022/12/07 04:59:01;;;;;;;7.40;0.93;;;3.70;99.90;;;;;;5065322;28;20032;-34
2022/12/07 05:01:27;;;;;;;6.10;1.45;;;3.30;99.90;;;;;;5076611;28;20106;-35
2022/12/07 05:03:53;;;;;;;11.43;0.80;;;2.90;99.90;;;;;;5075800;28;20041;-35
2022/12/07 05:06:19;;;;;;;8.98;0.93;;;2.60;99.90;;;;;;5075754;28;20047;-34
2022/12/07 05:08:45;;;;;;;11.93;0.70;;;2.40;99.90;;;;;;5057310;28;20049;-35
2022/12/07 05:11:37;;;;;;;13.73;0.90;;;2.70;99.90;;;;;;5074961;28;20044;-34
2022/12/07 05:14:04;;;;;;;10.63;1.00;;;3.40;99.90;;;;;;5076218;28;20049;-33
2022/12/07 05:16:30;;;;;;;9.35;1.63;;;2.00;99.90;;;;;;5075418;28;20398;-35
2022/12/07 05:18:56;;;;;;;8.68;0.93;;;2.40;99.90;;;;;;5063662;28;20127;-34
2022/12/07 05:21:21;;;;;;;11.68;1.38;;;1.60;99.90;;;;;;5066605;28;20625;-33
2022/12/07 05:23:47;;;;;;;12.25;0.77;;;1.50;99.90;;;;;;5075363;28;20048;-34
2022/12/07 05:26:13;;;;;;;7.47;0.80;;;1.70;99.90;;;;;;5076153;28;20123;-33
2022/12/07 05:28:39;;;;;;;12.80;1.15;;;1.30;99.90;;;;;;5043199;28;20495;-33
2022/12/07 05:31:04;;;;;;;8.68;0.55;;;1.80;99.90;;;;;;5034154;28;20511;-33
2022/12/07 05:33:30;;;;;;;12.30;1.77;;;1.40;99.90;;;;;;5033986;28;20107;-33
2022/12/07 05:35:56;;;;;;;8.95;0.85;;;1.30;99.90;;;;;;5035178;28;20049;-33
2022/12/07 05:38:21;;;;;;;8.90;1.15;;;1.40;99.90;;;;;;5036503;28;20392;-33
2022/12/07 05:40:47;;;;;;;10.98;1.10;;;1.20;99.90;;;;;;5055518;28;20110;-34
2022/12/07 05:43:13;;;;;;;8.55;0.80;;;1.00;99.90;;;;;;5055510;28;20380;-34
2022/12/07 05:45:38;;;;;;;7.28;1.10;;;1.30;99.90;;;;;;5054915;28;20461;-33
2022/12/07 05:48:04;;;;;;;7.35;0.70;;;1.30;99.90;;;;;;5054857;28;20045;-33
2022/12/07 05:50:30;;;;;;;7.03;1.13;;;1.10;99.90;;;;;;5053034;28;20056;-33
2022/12/07 05:52:56;;;;;;;12.82;1.08;;;1.20;99.90;;;;;;5053377;28;20113;-34
2022/12/07 05:55:21;;;;;;;7.40;0.73;;;1.30;99.90;;;;;;5054946;28;20041;-33
2022/12/07 06:00:32;;;;;;;10.38;0.93;;;1.00;99.90;;;;;;5063240;28;20048;-33
2022/12/07 06:02:57;;;;;;;9.65;1.23;;;1.60;99.90;;;;;;5074588;28;20127;-32
2022/12/07 06:05:23;;;;;;;7.72;1.13;;;2.60;99.90;;;;;;5039764;28;20155;-32
2022/12/07 06:07:49;;;;;;;6.63;0.85;;;2.10;99.90;;;;;;5073791;28;20041;-32
2022/12/07 06:10:15;;;;;;;11.10;1.73;;;2.50;99.90;;;;;;5067762;28;20080;-33
2022/12/07 06:12:42;;;;;;;11.60;1.55;;;2.50;99.90;;;;;;5054952;28;20459;-32
2022/12/07 06:15:10;;;;;;;17.13;1.77;;;2.90;99.90;;;;;;5054300;28;20041;-33
2022/12/07 06:17:36;;;;;;;9.32;0.93;;;2.50;99.90;;;;;;5052936;28;20058;-32
2022/12/07 06:20:03;;;;;;;10.52;1.00;;;3.40;99.90;;;;;;5054478;28;20110;-32
2022/12/07 06:22:29;;;;;;;13.60;3.05;;;2.40;99.90;;;;;;5052426;28;20402;-33
2022/12/07 06:24:54;;;;;;;11.02;0.88;;;3.20;99.90;;;;;;5054023;28;20050;-33
2022/12/07 06:27:20;;;;;;;6.05;0.93;;;3.30;99.90;;;;;;5054147;28;20056;-32
2022/12/07 06:29:46;;;;;;;6.78;1.13;;;2.30;99.90;;;;;;5053685;28;20045;-33
2022/12/07 06:32:12;;;;;;;6.88;0.90;;;3.00;99.90;;;;;;5053780;28;20495;-33
2022/12/07 06:34:38;;;;;;;11.10;0.75;;;2.20;99.90;;;;;;5053937;28;20048;-34
2022/12/07 06:37:04;;;;;;;7.63;0.47;;;2.10;99.90;;;;;;5053666;28;20514;-33
2022/12/07 06:39:30;;;;;;;9.88;0.57;;;1.90;99.90;;;;;;5054017;28;20467;-33
2022/12/07 06:41:57;;;;;;;7.50;0.30;;;1.40;99.90;;;;;;5052558;28;20048;-33
2022/12/07 06:44:23;;;;;;;5.75;0.85;;;1.80;99.90;;;;;;5019594;28;20055;-33
2022/12/07 06:46:50;;;;;;;8.27;0.50;;;1.10;99.90;;;;;;5069632;28;20056;-33
2022/12/07 06:49:16;;;;;;;7.40;0.40;;;1.90;99.90;;;;;;5053828;28;20084;-32
2022/12/07 06:51:42;;;;;;;10.43;1.35;;;1.00;99.90;;;;;;5053799;28;20040;-33
2022/12/07 06:54:12;;;;;;;9.30;0.75;;;1.30;99.90;;;;;;5068210;28;20124;-33
2022/12/07 06:56:38;;;;;;;11.32;0.88;;;2.10;99.90;;;;;;5074320;28;20040;-32
2022/12/07 06:59:06;;;;;;;6.00;1.40;;;1.00;99.90;;;;;;5073951;28;20067;-33
2022/12/07 07:01:33;;;;;;;7.97;0.60;;;1.00;99.90;;;;;;5072666;28;20483;-32
2022/12/07 07:03:58;;;;;;;10.70;0.80;;;1.00;99.90;;;;;;5059189;28;20056;-33
2022/12/07 07:06:24;;;;;;;8.88;0.85;;;1.30;99.90;;;;;;5053538;28;20048;-32
2022/12/07 07:08:50;;;;;;;11.43;1.38;;;1.40;99.90;;;;;;5052332;28;20041;-32
2022/12/07 07:11:16;;;;;;;10.02;0.93;;;1.60;99.90;;;;;;5053501;28;20051;-33
2022/12/07 07:13:42;;;;;;;11.32;2.75;;;2.10;99.90;;;;;;5079707;28;20545;-35
2022/12/07 07:16:08;;;;;;;21.45;4.10;;;2.10;99.90;;;;;;5039299;28;20127;-33
2022/12/07 07:18:34;;;;;;;10.13;2.20;;;2.20;99.90;;;;;;5073091;28;20143;-33
2022/12/07 07:21:00;;;;;;;8.23;0.93;;;2.40;99.90;;;;;;5055677;28;20506;-34
2022/12/07 07:23:26;;;;;;;13.43;1.08;;;2.40;99.90;;;;;;5073446;28;20517;-33
2022/12/07 07:25:52;;;;;;;10.50;1.13;;;2.60;99.90;;;;;;5072422;28;20119;-33
2022/12/07 07:28:18;;;;;;;15.55;1.35;;;2.40;99.90;;;;;;5048920;28;20522;-32
2022/12/07 07:30:44;;;;;;;12.80;1.50;;;2.60;99.90;;;;;;5033920;28;20049;-33
2022/12/07 07:33:10;;;;;;;11.57;0.68;;;1.90;99.90;;;;;;5033359;28;20056;-33
2022/12/07 07:35:36;;;;;;;8.80;0.77;;;1.70;99.90;;;;;;5033634;28;20060;-34
2022/12/07 07:38:03;;;;;;;13.25;1.27;;;2.80;99.90;;;;;;5042921;28;20411;-34
2022/12/07 07:40:29;;;;;;;16.80;1.75;;;1.30;99.90;;;;;;5053257;28;20084;-33
2022/12/07 07:42:55;;;;;;;13.13;0.93;;;1.40;99.90;;;;;;5085716;28;20041;-33
2022/12/07 07:45:22;;;;;;;11.65;1.98;;;1.20;99.90;;;;;;5053183;28;20045;-33
2022/12/07 07:47:49;;;;;;;17.52;2.95;;;2.50;99.90;;;;;;5051817;28;20119;-34
2022/12/07 07:50:15;;;;;;;13.93;0.73;;;1.40;99.90;;;;;;5053190;28;20140;-33
2022/12/07 07:52:42;;;;;;;11.48;0.90;;;1.40;99.90;;;;;;5053221;28;20110;-33
2022/12/07 07:55:08;;;;;;;8.48;1.13;;;1.40;99.90;;;;;;5051829;28;20103;-33
2022/12/07 07:57:35;;;;;;;11.55;1.20;;;1.60;99.90;;;;;;5051875;28;20051;-33
2022/12/07 08:00:04;;;;;;;12.77;1.48;;;1.60;99.90;;;;;;5070731;28;20131;-34
2022/12/07 08:02:30;;;;;;;11.32;0.90;;;1.80;99.90;;;;;;5073070;28;20052;-33
2022/12/07 08:04:55;;;;;;;9.60;0.85;;;1.60;99.90;;;;;;5073282;28;20493;-34
2022/12/07 08:07:21;;;;;;;12.45;1.33;;;1.70;99.90;;;;;;5057108;28;20516;-34
2022/12/07 08:09:47;;;;;;;6.55;1.33;;;1.90;99.90;;;;;;5051580;28;20048;-33
2022/12/07 08:12:12;;;;;;;17.38;1.67;;;2.00;99.90;;;;;;5051855;28;20465;-33
2022/12/07 08:14:38;;;;;;;9.93;0.90;;;2.10;99.90;;;;;;5041534;28;20501;-34
2022/12/07 08:17:04;;;;;;;14.82;1.70;;;2.00;99.90;;;;;;5052055;28;20088;-33
2022/12/07 08:19:29;;;;;;;11.63;1.35;;;2.20;99.90;;;;;;5055558;28;20132;-34
2022/12/07 08:21:56;;;;;;;7.85;1.98;;;2.30;99.90;;;;;;5055523;28;20396;-35
2022/12/07 08:24:22;;;;;;;5.85;0.90;;;2.40;99.90;;;;;;5055289;28;20466;-33
2022/12/07 08:26:49;;;;;;;10.05;1.42;;;2.40;99.90;;;;;;5057143;28;20134;-33
2022/12/07 08:29:15;;;;;;;7.70;1.98;;;2.30;99.90;;;;;;5057356;28;20416;-34
2022/12/07 08:31:41;;;;;;;11.20;1.88;;;3.40;99.90;;;;;;5056673;28;20083;-33
2022/12/07 08:34:07;;;;;;;10.15;1.77;;;2.70;99.90;;;;;;5055202;28;20037;-33
2022/12/07 08:36:32;;;;;;;14.90;1.17;;;2.90;99.90;;;;;;5056281;28;20414;-34
2022/12/07 08:38:58;;;;;;;10.63;1.23;;;2.60;99.90;;;;;;5056955;28;20128;-34
2022/12/07 08:41:24;;;;;;;10.57;1.25;;;3.00;99.90;;;;;;5035104;28;20054;-34
2022/12/07 08:43:51;;;;;;;10.65;1.27;;;2.10;99.90;;;;;;5036319;28;20053;-34
2022/12/07 08:46:25;;;;;;;15.70;1.50;;;2.20;99.90;;;;;;5036293;28;20041;-35
2022/12/07 08:49:03;;;;;;;13.02;1.60;;;3.30;99.90;;;;;;5037114;28;20084;-34
2022/12/07 08:51:28;;;;;;;18.60;2.80;;;2.60;99.90;;;;;;5059146;28;20068;-34
2022/12/07 08:53:56;;;;;;;8.68;1.13;;;2.80;99.90;;;;;;5074064;28;20083;-33
2022/12/07 08:56:22;;;;;;;6.75;0.70;;;3.20;99.90;;;;;;5074867;28;20044;-34
2022/12/07 08:58:48;;;;;;;10.35;1.75;;;3.50;99.90;;;;;;5076840;28;20060;-32
2022/12/07 09:01:14;;;;;;;2.08;0.60;;;3.70;99.90;;;;;;5075991;28;20150;-33
2022/12/07 09:03:40;;;;;;;3.72;0.30;;;4.40;99.90;;;;;;5058345;28;20049;-35
2022/12/07 09:06:07;;;;;;;9.00;0.40;;;4.40;99.90;;;;;;5057437;28;20079;-33
2022/12/07 09:08:42;;;;;;;6.55;1.02;;;4.10;99.90;;;;;;5052083;28;20055;-33
2022/12/07 09:11:08;;;;;;;6.20;0.63;;;4.10;99.90;;;;;;5056592;28;20045;-34
2022/12/07 09:13:34;;;;;;;6.28;0.55;;;4.10;99.90;;;;;;5055512;28;20502;-34
2022/12/07 09:16:00;;;;;;;4.72;0.75;;;4.20;99.90;;;;;;5054943;28;20041;-34
2022/12/07 09:18:26;;;;;;;8.95;0.60;;;4.30;99.90;;;;;;5055923;28;20380;-34
2022/12/07 09:20:52;;;;;;;7.43;0.60;;;4.30;99.90;;;;;;5055502;28;20072;-33
2022/12/07 09:23:18;;;;;;;5.97;0.68;;;4.40;99.90;;;;;;5054755;28;20048;-33
2022/12/07 09:25:43;;;;;;;6.35;0.60;;;4.30;99.90;;;;;;5054328;28;20443;-33
2022/12/07 09:28:09;;;;;;;7.38;0.90;;;4.60;99.90;;;;;;5054199;28;20095;-32
2022/12/07 09:30:35;;;;;;;7.88;1.60;;;4.00;99.90;;;;;;5055435;28;20132;-34
2022/12/07 09:33:01;;;;;;;10.10;1.10;;;4.00;99.90;;;;;;5055416;28;20044;-33
2022/12/07 09:35:27;;;;;;;10.85;1.42;;;3.80;99.90;;;;;;5069162;28;20074;-33
2022/12/07 09:37:53;;;;;;;6.68;0.88;;;3.90;99.90;;;;;;5075260;28;20093;-33
2022/12/07 09:40:20;;;;;;;9.02;1.00;;;4.00;99.90;;;;;;5074277;28;20127;-33
2022/12/07 09:42:50;;;;;;;10.70;1.67;;;4.00;99.90;;;;;;5071395;28;20508;-33
2022/12/07 09:45:29;;;;;;;16.40;1.50;;;4.00;99.90;;;;;;5058962;28;20071;-32
2022/12/07 09:47:54;;;;;;;23.73;2.67;;;4.10;99.90;;;;;;5044172;28;20045;-33
2022/12/07 09:50:24;;;;;;;8.77;1.13;;;4.30;99.90;;;;;;5044699;28;20049;-33
2022/12/07 09:52:51;;;;;;;7.45;1.52;;;3.80;99.90;;;;;;5055810;28;20051;-32
2022/12/07 09:55:24;;;;;;;10.25;1.33;;;4.60;99.90;;;;;;5054912;28;20372;-33
2022/12/07 09:57:51;;;;;;;6.50;1.02;;;4.10;99.90;;;;;;5055793;28;20048;-34
2022/12/07 10:00:23;;;;;;;18.25;2.17;;;4.40;99.90;;;;;;5053433;28;20049;-33
2022/12/07 10:03:00;;;;;;;12.23;1.15;;;4.40;99.90;;;;;;5075665;28;20048;-34
2022/12/07 10:05:50;;;;;;;16.60;0.90;;;4.60;99.90;;;;;;5075322;28;20033;-34
2022/12/07 10:08:17;;;;;;;8.18;0.88;;;4.80;99.90;;;;;;5075273;28;20119;-33
2022/12/07 10:10:44;;;;;;;10.95;1.27;;;4.90;99.90;;;;;;5050523;28;20052;-33
2022/12/07 10:13:18;;;;;;;8.52;1.55;;;5.10;99.90;;;;;;5054523;28;20169;-33
2022/12/07 10:15:54;;;;;;;9.65;0.80;;;5.10;99.90;;;;;;5053239;28;20044;-33
2022/12/07 10:18:30;;;;;;;9.73;0.90;;;5.40;99.90;;;;;;5052433;28;20139;-33
2022/12/07 10:21:10;;;;;;;10.05;1.20;;;;;;;;;;5053652;28;20613;-34
2022/12/07 10:23:38;;;;;;;7.97;1.00;;;5.50;99.90;;;;;;5033007;28;20053;-33
2022/12/07 10:26:20;;;;;;;7.63;0.80;;;5.50;99.90;;;;;;5033054;28;20360;-32
2022/12/07 10:28:46;;;;;;;9.82;0.93;;;5.50;99.90;;;;;;5065880;28;20051;-32
2022/12/07 10:31:19;;;;;;;9.15;1.75;;;5.50;99.90;;;;;;5032387;28;20539;-32
2022/12/07 10:33:51;;;;;;;9.48;0.88;;;5.70;99.90;;;;;;5065558;28;20045;-32
2022/12/07 10:36:17;;;;;;;5.90;1.23;;;5.80;99.90;;;;;;5032198;28;20124;-32
2022/12/07 10:38:52;;;;;;;7.50;1.33;;;5.80;99.90;;;;;;5033067;28;20064;-32
2022/12/07 10:41:19;;;;;;;9.55;2.08;;;6.00;99.90;;;;;;5033444;28;20103;-32
2022/12/07 10:43:56;;;;;;;7.30;1.25;;;6.00;99.90;;;;;;5033364;28;20050;-31
2022/12/07 10:46:42;;;;;;;13.45;1.70;;;5.80;99.90;;;;;;5032119;28;20045;-33
2022/12/07 10:49:26;;;;;;;9.65;1.73;;;5.30;99.90;;;;;;5033175;28;20507;-34
2022/12/07 10:51:55;;;;;;;14.45;2.03;;;4.40;99.90;;;;;;5032158;28;20133;-34
2022/12/07 10:54:30;;;;;;;14.95;2.28;;;3.80;99.90;;;;;;5033097;28;20081;-33
2022/12/07 10:56:55;;;;;;;10.15;1.13;;;3.40;99.90;;;;;;5033139;28;20049;-33
2022/12/07 10:59:57;;;;;;;5.38;0.30;;;3.20;99.90;;;;;;5033104;28;20041;-34
2022/12/07 11:02:42;;;;;;;4.15;0.20;;;3.10;99.90;;;;;;5033354;28;20160;-33
2022/12/07 11:05:22;;;;;;;6.50;0.52;;;3.10;99.90;;;;;;5032399;28;20140;-33
2022/12/07 11:07:50;;;;;;;3.40;0.25;;;3.20;99.90;;;;;;5033868;28;20057;-33
2022/12/07 11:10:19;;;;;;;4.03;0.50;;;3.40;99.90;;;;;;5032978;28;20559;-34
2022/12/07 11:12:45;;;;;;;3.83;0.28;;;3.60;99.90;;;;;;5032933;28;20103;-33
2022/12/07 11:15:37;;;;;;;3.67;0.70;;;3.70;99.90;;;;;;5065060;28;20432;-33
2022/12/07 11:18:27;;;;;;;5.27;0.50;;;3.80;99.90;;;;;;4994655;28;1113073;-33
2022/12/07 11:21:11;;;;;;;6.97;1.23;;;3.80;99.90;;;;;;5033826;28;20141;-32
2022/12/07 11:24:01;;;;;;;4.65;0.88;;;3.90;99.90;;;;;;5033699;28;20081;-32
2022/12/07 11:26:54;;;;;;;6.07;0.60;;;4.00;99.90;;;;;;5033880;28;20046;-33
2022/12/07 11:29:44;;;;;;;5.47;0.82;;;4.10;99.90;;;;;;5034366;28;20041;-32
2022/12/07 11:32:29;;;;;;;9.30;0.90;;;4.20;99.90;;;;;;5033547;28;20179;-33
2022/12/07 11:34:57;;;;;;;9.73;0.85;;;4.40;99.90;;;;;;5034031;28;20041;-32
2022/12/07 11:37:33;;;;;;;15.00;1.45;;;4.60;99.90;;;;;;5033737;28;20419;-34
2022/12/07 11:40:19;;;;;;;8.25;1.20;;;4.90;99.90;;;;;;5033516;28;20129;-32
2022/12/07 11:43:12;;;;;;;6.32;1.05;;;5.10;99.90;;;;;;5033751;28;20064;-33
2022/12/07 11:45:43;;;;;;;8.13;0.80;;;5.20;99.90;;;;;;5027176;28;20065;-33
2022/12/07 11:48:11;;;;;;;9.80;0.93;;;5.30;99.90;;;;;;5033967;28;20049;-34
2022/12/07 11:50:51;;;;;;;6.55;0.57;;;5.30;99.90;;;;;;5037064;28;20094;-34
2022/12/07 11:53:37;;;;;;;10.32;0.70;;;5.40;99.90;;;;;;5037343;28;20128;-33
2022/12/07 11:56:30;;;;;;;4.50;0.68;;;5.40;99.90;;;;;;5036859;28;20462;-33
2022/12/07 11:59:17;;;;;;;7.45;0.43;;;5.50;99.90;;;;;;5036133;28;20492;-33
2022/12/07 12:02:22;;;;;;;8.25;1.55;;;5.50;99.90;;;;;;5037459;28;20092;-33
2022/12/07 12:05:01;;;;;;;9.35;0.77;;;5.40;99.90;;;;;;5037881;28;20379;-33
2022/12/07 12:07:28;;;;;;;6.07;0.80;;;5.50;99.90;;;;;;5036955;28;20049;-33
2022/12/07 12:10:04;;;;;;;8.52;1.25;;;5.40;99.90;;;;;;5036991;28;20049;-33
2022/12/07 12:13:02;;;;;;;5.85;0.50;;;5.30;99.90;;;;;;5037566;28;20395;-33
2022/12/07 12:16:06;;;;;;;8.57;0.90;;;5.30;99.90;;;;;;5037098;28;20498;-33
2022/12/07 12:18:32;;;;;;;;;;;5.20;99.90;;;;;;5014912;28;20109;-34
2022/12/07 12:21:12;;;;;;;5.07;0.50;;;5.20;99.90;;;;;;5014554;28;19977;-33
2022/12/07 12:24:04;;;;;;;9.23;0.80;;;5.20;99.90;;;;;;5026979;28;20064;-34
2022/12/07 12:26:33;;;;;;;6.20;0.80;;;5.10;99.90;;;;;;5036950;28;20071;-33
2022/12/07 12:29:07;;;;;;;3.22;0.75;;;5.10;99.90;;;;;;5037114;28;20124;-34
2022/12/07 12:31:39;;;;;;;6.63;0.60;;;5.20;99.90;;;;;;5069485;28;20099;-34
2022/12/07 12:34:31;;;;;;;9.80;1.00;;;5.10;99.90;;;;;;5036443;28;20057;-33
2022/12/07 12:36:58;;;;;;;5.40;0.65;;;4.90;99.90;;;;;;5037014;28;20053;-32
2022/12/07 12:39:24;;;;;;;2.33;0.73;;;4.80;99.90;;;;;;5036433;28;20077;-33
2022/12/07 12:44:15;;;;;;;7.68;1.05;;;4.50;99.90;;;;;;5035961;28;20049;-31
2022/12/07 12:46:50;;;;;;;4.43;0.68;;;4.40;99.90;;;;;;5035300;28;20049;-32
2022/12/07 12:49:16;;;;;;;5.45;0.55;;;4.30;99.90;;;;;;5035964;28;20499;-32
2022/12/07 12:51:49;;;;;;;3.58;0.38;;;4.30;99.90;;;;;;5036210;28;20056;-32
2022/12/07 12:54:17;;;;;;;7.88;0.88;;;4.20;99.90;;;;;;5019241;28;20439;-32
2022/12/07 12:57:19;;;;;;;2.05;0.13;;;4.10;99.90;;;;;;5036896;28;20049;-31
2022/12/07 12:59:51;;;;;;;4.35;1.15;;;4.10;99.90;;;;;;5034475;28;20137;-32
2022/12/07 13:02:42;;;;;;;5.97;0.57;;;4.00;99.90;;;;;;5036025;28;20053;-32
2022/12/07 13:05:11;;;;;;;5.70;0.45;;;3.90;99.90;;;;;;5034976;28;20132;-32
2022/12/07 13:07:46;;;;;;;3.97;0.65;;;3.90;99.90;;;;;;5035900;28;20049;-32
2022/12/07 13:10:26;;;;;;;4.30;0.88;;;3.90;99.90;;;;;;5034845;28;20049;-32
2022/12/07 13:13:02;;;;;;;3.58;0.40;;;3.90;99.90;;;;;;5069006;28;20049;-32
2022/12/07 13:15:47;;;;;;;4.05;0.50;;;3.90;99.90;;;;;;5067969;28;20085;-32